Time;durP1;ratioP1;P1;durP2;ratioP2;P2;SDS_P1;SDS_P2;PMS_P1;PMS_P2;Temp;Humidity;BMP_temperature;BMP_pressure;BME280_temperature;BME280_humidity;BME280_pressure;Samples;Min_cycle;Max_cycle;Signal;HPM_P1;HPM_P2
2023/04/07 00:00:46;;;;;;;9.07;4.70;;;3.50;99.90;2.70;100801;;;;583612;242;24122;-80
2023/04/07 00:03:14;;;;;;;8.47;4.57;;;3.50;99.90;2.70;100800;;;;593015;238;24068;-78
2023/04/07 00:05:42;;;;;;;5.33;2.93;;;3.50;99.90;2.70;100803;;;;583937;242;24111;-77
2023/04/07 00:08:10;;;;;;;36.58;9.70;;;3.50;99.90;2.70;100797;;;;578893;242;35174;-80
2023/04/07 00:10:38;;;;;;;12.57;5.63;;;3.50;99.90;2.70;100795;;;;584322;239;24059;-76
2023/04/07 00:13:06;;;;;;;8.07;5.43;;;3.50;99.90;2.70;100795;;;;585442;241;24116;-80
2023/04/07 00:15:34;;;;;;;6.50;4.47;;;3.50;99.90;2.70;100792;;;;584952;241;24086;-80
2023/04/07 00:18:02;;;;;;;10.37;5.27;;;3.50;99.90;2.70;100794;;;;584811;241;24062;-79
2023/04/07 00:20:30;;;;;;;7.73;4.23;;;3.50;99.90;2.70;100793;;;;584609;241;24049;-76
2023/04/07 00:22:58;;;;;;;11.83;5.30;;;3.60;99.90;2.70;100783;;;;584505;241;24111;-77
2023/04/07 00:25:27;;;;;;;11.57;5.07;;;3.60;99.90;2.70;100783;;;;584145;241;24062;-78
2023/04/07 00:27:54;;;;;;;10.67;5.83;;;3.60;99.90;2.70;100775;;;;584568;241;24064;-77
2023/04/07 00:30:22;;;;;;;8.53;5.07;;;3.60;99.90;2.70;100776;;;;584338;241;24065;-77
2023/04/07 00:32:50;;;;;;;16.90;6.40;;;3.60;99.90;2.80;100780;;;;584354;241;24064;-76
2023/04/07 00:35:21;;;;;;;15.10;5.43;;;3.60;99.90;2.70;100775;;;;584475;241;24095;-77
2023/04/07 00:37:46;;;;;;;11.73;5.03;;;3.60;99.90;2.70;100780;;;;584339;241;24085;-81
2023/04/07 00:40:14;;;;;;;13.03;4.80;;;3.60;99.90;2.70;100779;;;;584234;241;24104;-81
2023/04/07 00:42:45;;;;;;;10.43;5.47;;;3.60;99.90;2.70;100771;;;;584241;241;24083;-81
2023/04/07 00:45:14;;;;;;;6.90;3.37;;;3.60;99.90;2.70;100767;;;;592730;238;24079;-79
2023/04/07 00:47:38;;;;;;;11.97;5.40;;;3.60;99.90;2.80;100767;;;;583771;242;24087;-80
2023/04/07 00:50:09;;;;;;;12.90;6.07;;;3.60;99.90;2.80;100757;;;;583854;242;24069;-81
2023/04/07 00:52:34;;;;;;;10.83;5.33;;;3.60;99.90;2.80;100756;;;;583712;242;24046;-79
2023/04/07 00:55:03;;;;;;;5.97;3.47;;;3.60;99.90;2.80;100749;;;;583835;242;24119;-76
2023/04/07 00:57:31;;;;;;;8.70;5.17;;;3.60;99.90;2.80;100753;;;;583891;242;24086;-82
2023/04/07 00:59:59;;;;;;;11.00;4.83;;;3.60;99.90;2.80;100764;;;;583619;242;24090;-82
2023/04/07 01:02:42;;;;;;;12.30;5.77;;;3.60;99.90;2.80;100753;;;;583527;242;24095;-79
2023/04/07 01:05:52;;;;;;;11.80;5.00;;;3.60;99.90;2.80;100760;;;;584994;242;24138;-81
2023/04/07 01:08:53;;;;;;;13.60;4.63;;;3.60;99.90;2.80;100753;;;;584023;242;24063;-78
2023/04/07 01:11:42;;;;;;;8.47;5.47;;;3.60;99.90;2.80;100754;;;;583902;242;24061;-80
2023/04/07 01:14:11;;;;;;;13.57;5.37;;;3.60;99.90;2.80;100748;;;;590431;242;24079;-81
2023/04/07 01:16:47;;;;;;;32.05;10.73;;;3.60;99.90;2.80;100749;;;;587776;242;35301;-80
2023/04/07 01:19:16;;;;;;;51.53;13.32;;;3.60;99.90;2.80;100745;;;;587600;242;35210;-80
2023/04/07 01:21:44;;;;;;;26.63;8.63;;;3.60;99.90;2.80;100734;;;;588393;242;24056;-81
2023/04/07 01:24:49;;;;;;;14.73;6.40;;;3.70;99.90;2.80;100740;;;;594605;240;24070;-80
2023/04/07 01:27:38;;;;;;;7.00;4.60;;;3.70;99.90;2.80;100732;;;;591354;237;24068;-78
2023/04/07 01:30:06;;;;;;;10.17;5.07;;;3.70;99.90;2.80;100739;;;;593115;241;24076;-81
2023/04/07 01:32:37;;;;;;;11.03;5.83;;;3.70;99.90;2.80;100726;;;;593173;237;24107;-76
2023/04/07 01:35:02;;;;;;;9.80;6.10;;;3.60;99.90;2.80;100727;;;;592796;241;24091;-76
2023/04/07 01:37:30;;;;;;;15.33;5.17;;;3.60;99.90;2.80;100724;;;;593316;241;24055;-77
2023/04/07 01:39:58;;;;;;;9.43;5.80;;;3.60;99.90;2.80;100732;;;;584124;241;24072;-79
2023/04/07 01:42:26;;;;;;;8.90;4.53;;;3.60;99.90;2.80;100743;;;;593310;241;24093;-75
2023/04/07 01:44:57;;;;;;;9.30;5.07;;;3.60;99.90;2.80;100732;;;;583819;241;24089;-77
2023/04/07 01:47:21;;;;;;;11.30;5.47;;;3.60;99.90;2.80;100727;;;;590266;241;24081;-75
2023/04/07 01:49:52;;;;;;;6.10;4.03;;;3.60;99.90;2.80;100725;;;;583873;241;24099;-76
2023/04/07 01:52:17;;;;;;;8.10;4.37;;;3.70;99.90;2.80;100720;;;;583453;241;24090;-74
2023/04/07 01:54:45;;;;;;;10.80;5.60;;;3.70;99.90;2.80;100719;;;;583882;241;24076;-77
2023/04/07 01:57:13;;;;;;;11.23;5.17;;;3.70;99.90;2.80;100723;;;;583799;241;24075;-76
2023/04/07 01:59:41;;;;;;;6.90;1.87;;;3.70;99.90;2.80;100718;;;;584081;242;24083;-75
2023/04/07 02:02:09;;;;;;;9.93;4.97;;;3.60;99.90;2.80;100731;;;;583973;242;24087;-76
2023/04/07 02:04:51;;;;;;;12.63;6.50;;;3.60;99.90;2.80;100733;;;;583952;242;24075;-75
2023/04/07 02:07:20;;;;;;;14.77;5.40;;;3.60;99.90;2.80;100734;;;;592400;242;24097;-76
2023/04/07 02:09:47;;;;;;;25.40;10.55;;;3.70;99.90;2.80;100725;;;;586792;242;35280;-75
2023/04/07 02:12:15;;;;;;;14.03;8.17;;;3.70;99.90;2.90;100735;;;;583585;242;24117;-77
2023/04/07 02:14:44;;;;;;;15.23;6.67;;;3.70;99.90;2.80;100732;;;;592629;238;24053;-76
2023/04/07 02:17:12;;;;;;;14.37;5.93;;;3.70;99.90;2.90;100726;;;;592763;241;24071;-75
2023/04/07 02:19:44;;;;;;;26.90;5.90;;;3.70;99.90;2.90;100734;;;;561921;251;25199;-77
2023/04/07 02:22:08;;;;;;;8.73;4.80;;;3.70;99.90;2.90;100737;;;;568688;251;24108;-75
2023/04/07 02:24:35;;;;;;;9.90;6.60;;;3.70;99.90;2.90;100739;;;;560956;251;24129;-75
2023/04/07 02:27:03;;;;;;;9.77;5.30;;;3.70;99.90;2.90;100739;;;;562083;251;24128;-78
2023/04/07 02:29:31;;;;;;;12.70;5.97;;;3.70;99.90;2.90;100732;;;;579847;246;24095;-77
2023/04/07 02:31:59;;;;;;;12.67;5.97;;;3.70;99.90;2.90;100735;;;;579856;246;24113;-80
2023/04/07 02:34:27;;;;;;;17.10;7.03;;;3.70;99.90;2.90;100731;;;;580646;245;24076;-79
2023/04/07 02:36:55;;;;;;;15.63;5.03;;;3.70;99.90;2.90;100726;;;;582465;245;24083;-79
2023/04/07 02:39:23;;;;;;;9.53;5.57;;;3.70;99.90;2.90;100730;;;;568911;251;24124;-80
2023/04/07 02:41:51;;;;;;;13.77;5.60;;;3.80;99.90;2.90;100721;;;;580564;246;24082;-79
2023/04/07 02:44:19;;;;;;;15.73;7.07;;;3.70;99.90;2.90;100721;;;;562987;251;24132;-76
2023/04/07 02:46:47;;;;;;;14.33;6.20;;;3.70;99.90;2.90;100733;;;;580333;246;24151;-84
2023/04/07 02:49:15;;;;;;;9.83;6.27;;;3.70;99.90;2.90;100728;;;;580390;246;24091;-76
2023/04/07 02:51:43;;;;;;;13.93;5.70;;;3.70;99.90;2.90;100720;;;;562808;251;24107;-80
2023/04/07 02:54:10;;;;;;;14.37;6.87;;;3.70;99.90;2.90;100722;;;;580139;246;24122;-77
2023/04/07 02:56:39;;;;;;;5.40;2.33;;;3.70;99.90;2.90;100726;;;;580182;246;24094;-81
2023/04/07 02:59:07;;;;;;;8.40;4.00;;;3.70;99.90;2.90;100721;;;;579831;246;24121;-76
2023/04/07 03:01:35;;;;;;;9.70;5.30;;;3.70;99.90;2.90;100725;;;;579724;246;24127;-77
2023/04/07 03:04:03;;;;;;;17.43;7.00;;;3.70;99.90;2.90;100714;;;;579579;246;25146;-76
2023/04/07 03:06:32;;;;;;;14.67;7.47;;;3.80;99.90;2.90;100710;;;;560143;252;24163;-77
2023/04/07 03:08:59;;;;;;;15.03;5.80;;;3.80;99.90;2.90;100708;;;;570693;247;24167;-75
2023/04/07 03:11:27;;;;;;;13.00;6.87;;;3.80;99.90;2.90;100711;;;;574840;248;24090;-78
2023/04/07 03:13:55;;;;;;;17.43;7.27;;;3.80;99.90;2.90;100714;;;;570776;248;25121;-80
2023/04/07 03:16:22;;;;;;;10.07;5.40;;;3.80;99.90;3.00;100718;;;;574537;248;24164;-81
2023/04/07 03:18:50;;;;;;;12.77;6.87;;;3.80;99.90;3.00;100710;;;;574634;248;24254;-81
2023/04/07 03:21:18;;;;;;;11.30;5.97;;;3.80;99.90;3.00;100718;;;;574653;248;24101;-76
2023/04/07 03:23:46;;;;;;;20.37;7.70;;;3.80;99.90;3.00;100709;;;;574440;248;24083;-76
2023/04/07 03:26:14;;;;;;;11.70;5.83;;;3.80;99.90;3.00;100717;;;;574453;248;24088;-75
2023/04/07 03:28:42;;;;;;;20.47;8.57;;;3.80;99.90;3.00;100714;;;;574433;248;24101;-76
2023/04/07 03:31:10;;;;;;;11.93;7.37;;;3.80;99.90;3.00;100718;;;;574104;248;24105;-79
2023/04/07 03:33:38;;;;;;;13.33;6.23;;;3.90;99.90;3.00;100713;;;;574035;248;24162;-80
2023/04/07 03:36:07;;;;;;;14.10;5.77;;;3.90;99.90;3.10;100709;;;;574262;248;24111;-79
2023/04/07 03:38:34;;;;;;;10.67;4.77;;;3.80;99.90;3.00;100710;;;;569861;248;24095;-80
2023/04/07 03:41:02;;;;;;;13.50;6.60;;;3.80;99.90;3.10;100711;;;;574176;248;24250;-81
2023/04/07 03:43:30;;;;;;;13.57;6.23;;;3.90;99.90;3.10;100720;;;;574128;248;24085;-76
2023/04/07 03:45:58;;;;;;;15.23;6.23;;;3.90;99.90;3.10;100724;;;;575260;247;24088;-76
2023/04/07 03:48:26;;;;;;;12.77;7.30;;;3.90;99.90;3.10;100714;;;;575268;247;24091;-76
2023/04/07 03:50:56;;;;;;;16.37;6.30;;;3.90;99.90;3.10;100718;;;;574880;247;24094;-75
2023/04/07 03:53:24;;;;;;;12.53;7.10;;;3.90;99.90;3.10;100716;;;;575037;247;24098;-75
2023/04/07 03:55:52;;;;;;;13.77;6.40;;;3.90;99.90;3.10;100718;;;;574628;247;24103;-77
2023/04/07 03:58:24;;;;;;;15.03;6.23;;;3.90;99.90;3.10;100709;;;;574583;247;24099;-80
2023/04/07 04:00:48;;;;;;;15.83;6.17;;;3.90;99.90;3.10;100705;;;;574402;247;24106;-79
2023/04/07 04:03:16;;;;;;;15.43;7.13;;;3.90;99.90;3.10;100706;;;;570248;247;25149;-77
2023/04/07 04:05:47;;;;;;;7.17;5.00;;;4.00;99.90;3.10;100707;;;;574339;247;24105;-75
2023/04/07 04:08:12;;;;;;;10.17;5.20;;;4.00;99.90;3.20;100715;;;;576369;247;24160;-78
2023/04/07 04:10:43;;;;;;;13.47;6.50;;;4.00;99.90;3.10;100712;;;;570651;247;24145;-76
2023/04/07 04:13:07;;;;;;;8.77;5.03;;;4.00;99.90;3.10;100715;;;;570433;247;24107;-77
2023/04/07 04:15:35;;;;;;;16.40;6.33;;;4.00;99.90;3.10;100715;;;;574796;247;24104;-76
2023/04/07 04:18:03;;;;;;;11.67;7.03;;;4.00;99.90;3.20;100715;;;;574752;247;24106;-76
2023/04/07 04:20:32;;;;;;;17.33;5.53;;;4.00;99.90;3.10;100709;;;;574712;247;24136;-77
2023/04/07 04:23:00;;;;;;;9.00;5.57;;;4.00;99.90;3.20;100727;;;;574481;248;24096;-76
2023/04/07 04:25:28;;;;;;;23.30;5.87;;;4.00;99.90;3.20;100712;;;;574515;248;24111;-76
2023/04/07 04:27:56;;;;;;;12.90;7.50;;;4.00;99.90;3.20;100722;;;;574495;248;24092;-78
2023/04/07 04:30:24;;;;;;;36.87;6.93;;;4.00;99.90;3.20;100725;;;;570293;248;24117;-76
2023/04/07 04:32:52;;;;;;;11.37;5.30;;;4.00;99.90;3.20;100727;;;;569809;248;24114;-76
2023/04/07 04:35:20;;;;;;;17.90;6.40;;;4.00;99.90;3.20;100727;;;;574184;248;24123;-76
2023/04/07 04:37:48;;;;;;;20.20;6.07;;;4.00;99.90;3.20;100712;;;;569902;248;24083;-77
2023/04/07 04:40:16;;;;;;;8.20;5.03;;;4.00;99.90;3.20;100712;;;;574277;248;25148;-75
2023/04/07 04:42:44;;;;;;;36.43;6.90;;;4.00;99.90;3.20;100717;;;;574132;248;24086;-77
2023/04/07 04:45:12;;;;;;;20.00;6.50;;;4.00;99.90;3.20;100708;;;;574558;248;24201;-75
2023/04/07 04:47:41;;;;;;;11.87;5.17;;;4.00;99.90;3.20;100705;;;;574186;248;24099;-76
2023/04/07 04:50:11;;;;;;;7.40;3.67;;;4.10;99.90;3.20;100696;;;;573996;248;24091;-78
2023/04/07 04:52:37;;;;;;;11.23;6.37;;;4.00;99.90;3.20;100691;;;;578379;248;24107;-81
2023/04/07 04:55:03;;;;;;;6.27;3.90;;;4.00;99.90;3.20;100693;;;;574074;248;24196;-76
2023/04/07 04:57:33;;;;;;;10.90;5.03;;;4.10;99.90;3.20;100695;;;;574973;247;24156;-76
2023/04/07 04:59:59;;;;;;;62.42;12.27;;;4.10;99.90;3.20;100693;;;;570182;247;35463;-76
2023/04/07 05:02:27;;;;;;;22.60;5.93;;;4.00;99.90;3.20;100689;;;;570766;247;24085;-78
2023/04/07 05:04:55;;;;;;;21.63;6.23;;;4.10;99.90;3.30;100703;;;;570812;247;24082;-79
2023/04/07 05:07:23;;;;;;;15.27;5.43;;;4.00;99.90;3.20;100706;;;;574703;247;24108;-78
2023/04/07 05:09:51;;;;;;;22.30;6.97;;;4.10;99.90;3.30;100715;;;;574615;247;24087;-76
2023/04/07 05:12:19;;;;;;;20.43;6.87;;;4.10;99.90;3.30;100708;;;;570818;247;24162;-76
2023/04/07 05:14:47;;;;;;;26.87;5.37;;;4.10;99.90;3.30;100718;;;;570797;247;24087;-76
2023/04/07 05:17:15;;;;;;;23.80;5.97;;;4.20;99.90;3.30;100719;;;;574391;247;24095;-76
2023/04/07 05:19:43;;;;;;;28.17;6.47;;;4.20;99.90;3.40;100709;;;;570130;247;24135;-77
2023/04/07 05:22:10;;;;;;;31.43;5.97;;;4.20;99.90;3.40;100707;;;;574441;247;24099;-75
2023/04/07 05:24:39;;;;;;;24.67;6.93;;;4.20;99.90;3.40;100700;;;;574435;247;24097;-79
2023/04/07 05:27:07;;;;;;;16.70;6.20;;;4.20;99.90;3.40;100703;;;;574460;247;24093;-77
2023/04/07 05:29:35;;;;;;;7.70;4.83;;;4.20;99.90;3.40;100704;;;;574214;247;24090;-77
2023/04/07 05:32:03;;;;;;;11.10;3.63;;;4.20;99.90;3.40;100696;;;;574292;247;24194;-78
2023/04/07 05:34:31;;;;;;;9.90;4.27;;;4.10;99.90;3.40;100708;;;;578972;248;24105;-75
2023/04/07 05:36:59;;;;;;;18.63;5.53;;;4.20;99.90;3.40;100717;;;;574393;248;24120;-76
2023/04/07 05:39:27;;;;;;;10.90;4.70;;;4.30;99.90;3.50;100714;;;;574524;248;24099;-76
2023/04/07 05:41:56;;;;;;;33.10;6.60;;;4.20;99.90;3.50;100727;;;;574601;248;24095;-77
2023/04/07 05:44:22;;;;;;;24.43;5.90;;;4.30;99.90;3.60;100724;;;;574549;248;24119;-79
2023/04/07 05:46:50;;;;;;;22.37;6.20;;;4.40;99.90;3.60;100720;;;;574482;248;24098;-77
2023/04/07 05:49:18;;;;;;;31.90;6.70;;;4.40;99.90;3.60;100725;;;;574659;248;24068;-76
2023/04/07 05:51:46;;;;;;;29.73;6.37;;;4.40;99.90;3.60;100721;;;;574651;248;24100;-77
2023/04/07 05:54:14;;;;;;;14.90;6.60;;;4.40;99.90;3.60;100723;;;;574654;248;24122;-80
2023/04/07 05:56:43;;;;;;;48.23;7.53;;;4.50;99.90;3.60;100723;;;;574509;248;24145;-77
2023/04/07 05:59:11;;;;;;;40.23;8.40;;;4.40;99.90;3.70;100729;;;;569953;248;24107;-77
2023/04/07 06:01:39;;;;;;;34.47;8.03;;;4.50;99.90;3.80;100731;;;;574088;248;24090;-79
2023/04/07 06:04:07;;;;;;;20.67;6.47;;;4.50;99.90;3.80;100733;;;;574152;248;24099;-76
2023/04/07 06:06:35;;;;;;;25.67;5.83;;;4.60;99.90;3.80;100721;;;;574182;248;24196;-77
2023/04/07 06:09:03;;;;;;;21.33;5.90;;;4.60;99.90;3.80;100719;;;;574975;247;24126;-78
2023/04/07 06:11:31;;;;;;;19.17;4.40;;;4.60;99.90;3.90;100714;;;;571085;247;24107;-79
2023/04/07 06:14:00;;;;;;;33.47;6.17;;;4.70;99.90;3.90;100719;;;;571291;247;24115;-76
2023/04/07 06:16:28;;;;;;;34.57;6.73;;;4.70;99.90;4.00;100739;;;;571001;247;24090;-78
2023/04/07 06:18:56;;;;;;;22.57;5.57;;;4.80;99.90;4.00;100744;;;;570471;247;24182;-77
2023/04/07 06:21:25;;;;;;;23.93;5.97;;;4.80;99.90;4.00;100740;;;;570629;247;24163;-77
2023/04/07 06:23:52;;;;;;;15.67;4.67;;;4.80;99.90;4.10;100743;;;;570438;247;24108;-81
2023/04/07 06:26:20;;;;;;;15.83;4.77;;;4.80;99.90;4.10;100748;;;;574778;247;24112;-79
2023/04/07 06:28:51;;;;;;;16.53;5.40;;;4.90;99.90;4.10;100746;;;;574431;247;24091;-77
2023/04/07 06:31:16;;;;;;;16.77;3.83;;;4.90;99.90;4.00;100747;;;;570019;247;24107;-77
2023/04/07 06:33:44;;;;;;;13.93;5.57;;;4.90;99.90;4.00;100752;;;;570279;247;24136;-76
2023/04/07 06:36:12;;;;;;;8.03;4.23;;;4.90;99.90;4.10;100745;;;;570716;247;24110;-77
2023/04/07 06:38:40;;;;;;;19.97;5.00;;;4.90;99.90;4.10;100753;;;;574891;247;24183;-77
2023/04/07 06:41:11;;;;;;;9.10;4.70;;;4.90;99.90;4.10;100753;;;;570728;247;24094;-77
2023/04/07 06:43:40;;;;;;;19.23;5.90;;;4.90;99.90;4.10;100745;;;;574556;247;24117;-77
2023/04/07 06:46:04;;;;;;;11.10;4.70;;;4.90;99.90;4.10;100746;;;;570174;248;24241;-77
2023/04/07 06:48:32;;;;;;;12.67;4.10;;;4.90;99.90;4.20;100760;;;;574591;248;24146;-77
2023/04/07 06:51:00;;;;;;;18.93;3.03;;;5.00;99.90;4.20;100749;;;;574541;248;24109;-78
2023/04/07 06:53:28;;;;;;;14.13;5.53;;;5.00;99.90;4.20;100748;;;;574596;248;24118;-78
2023/04/07 06:56:08;;;;;;;21.50;6.07;;;5.00;99.90;4.20;100739;;;;574550;248;24138;-76
2023/04/07 06:58:36;;;;;;;30.63;6.80;;;5.00;99.90;4.20;100745;;;;570037;248;24107;-77
2023/04/07 07:01:07;;;;;;;10.53;4.83;;;5.00;99.90;4.20;100749;;;;574455;248;24154;-77
2023/04/07 07:03:32;;;;;;;12.30;6.07;;;5.00;99.90;4.20;100748;;;;570227;248;24128;-77
2023/04/07 07:06:03;;;;;;;11.80;7.30;;;5.00;99.90;4.20;100742;;;;574600;248;24104;-78
2023/04/07 07:08:28;;;;;;;15.50;5.97;;;5.00;99.90;4.20;100751;;;;569538;248;24130;-76
2023/04/07 07:10:57;;;;;;;12.80;7.70;;;5.10;99.90;4.30;100745;;;;578997;248;24184;-76
2023/04/07 07:13:25;;;;;;;18.87;6.03;;;5.10;99.90;4.40;100760;;;;570319;248;24129;-79
2023/04/07 07:15:53;;;;;;;34.63;7.53;;;5.20;99.90;4.40;100758;;;;569512;248;24103;-78
2023/04/07 07:18:21;;;;;;;27.47;8.40;;;5.20;99.90;4.40;100754;;;;574303;248;24081;-76
2023/04/07 07:20:49;;;;;;;19.30;7.83;;;5.20;99.90;4.50;100752;;;;574822;247;24094;-76
2023/04/07 07:23:17;;;;;;;19.33;6.87;;;5.30;99.90;4.50;100757;;;;571058;247;24083;-77
2023/04/07 07:25:45;;;;;;;12.80;5.87;;;5.30;99.90;4.50;100757;;;;575162;247;24142;-77
2023/04/07 07:28:13;;;;;;;17.07;5.37;;;5.30;99.90;4.50;100758;;;;574801;247;24094;-79
2023/04/07 07:30:42;;;;;;;16.93;7.03;;;5.40;99.90;4.50;100754;;;;574806;247;24101;-76
2023/04/07 07:33:10;;;;;;;39.03;7.03;;;5.30;99.90;4.50;100751;;;;574685;247;24087;-76
2023/04/07 07:35:41;;;;;;;18.23;5.80;;;5.30;99.90;4.50;100757;;;;570641;247;24070;-76
2023/04/07 07:38:05;;;;;;;11.47;5.60;;;5.30;99.90;4.60;100765;;;;579149;247;24128;-77
2023/04/07 07:40:33;;;;;;;17.17;6.00;;;5.40;99.90;4.60;100757;;;;570655;247;24098;-77
2023/04/07 07:43:01;;;;;;;28.53;8.10;;;5.40;99.90;4.70;100759;;;;570606;247;24117;-76
2023/04/07 07:45:29;;;;;;;35.43;7.90;;;5.50;99.90;4.70;100756;;;;574678;247;24094;-76
2023/04/07 07:47:57;;;;;;;18.73;7.97;;;5.50;99.90;4.80;100755;;;;574665;247;24084;-76
2023/04/07 07:50:25;;;;;;;18.20;6.40;;;5.60;99.90;5.00;100751;;;;570539;247;24150;-79
2023/04/07 07:52:53;;;;;;;25.63;8.40;;;5.80;99.90;5.10;100747;;;;574830;247;24115;-77
2023/04/07 07:55:21;;;;;;;16.80;5.57;;;5.90;99.90;5.20;100759;;;;574804;247;24114;-77
2023/04/07 07:57:49;;;;;;;28.43;8.47;;;5.90;99.90;5.20;100762;;;;574392;248;24124;-76
2023/04/07 08:00:17;;;;;;;23.07;7.77;;;6.00;99.90;5.20;100770;;;;574611;248;24075;-77
2023/04/07 08:02:45;;;;;;;28.93;8.80;;;6.10;99.90;5.30;100779;;;;574452;248;24190;-82
2023/04/07 08:05:13;;;;;;;22.93;7.70;;;6.10;99.90;5.30;100779;;;;574478;248;24102;-80
2023/04/07 08:07:42;;;;;;;13.60;6.37;;;6.10;99.90;5.40;100773;;;;574587;248;24097;-79
2023/04/07 08:10:09;;;;;;;38.27;7.47;;;6.20;99.90;5.30;100776;;;;574335;248;24124;-77
2023/04/07 08:12:37;;;;;;;30.50;9.37;;;6.20;99.90;5.30;100772;;;;570404;248;25126;-79
2023/04/07 08:15:09;;;;;;;32.67;8.47;;;6.10;99.90;5.30;100760;;;;574490;248;24129;-75
2023/04/07 08:17:33;;;;;;;14.67;5.30;;;6.20;99.90;5.50;100771;;;;569976;248;24160;-80
2023/04/07 08:20:01;;;;;;;12.63;5.37;;;6.30;99.90;5.50;100764;;;;574270;248;24127;-77
2023/04/07 08:22:29;;;;;;;22.43;7.57;;;6.30;99.90;5.60;100765;;;;573985;248;24106;-77
2023/04/07 08:24:57;;;;;;;19.23;8.47;;;6.40;99.90;5.70;100764;;;;578678;248;24104;-77
2023/04/07 08:27:25;;;;;;;21.20;6.77;;;6.50;99.90;5.80;100770;;;;574230;248;24094;-77
2023/04/07 08:30:02;;;;;;;28.37;6.57;;;6.60;99.90;5.80;100767;;;;574366;248;24099;-76
2023/04/07 08:32:41;;;;;;;16.87;6.27;;;6.60;99.90;5.80;100761;;;;570866;247;24170;-75
2023/04/07 08:35:13;;;;;;;16.03;7.90;;;6.60;99.90;5.80;100765;;;;570717;247;24116;-77
2023/04/07 08:37:37;;;;;;;7.83;4.07;;;6.60;99.90;5.80;100765;;;;570307;247;24114;-77
2023/04/07 08:40:06;;;;;;;13.27;7.23;;;6.60;99.90;5.80;100764;;;;579832;247;24115;-76
2023/04/07 08:42:35;;;;;;;19.00;7.53;;;6.70;99.90;5.90;100764;;;;570903;247;24079;-76
2023/04/07 08:45:09;;;;;;;19.10;8.10;;;6.80;99.90;6.00;100768;;;;561189;251;24113;-76
2023/04/07 08:47:34;;;;;;;14.73;7.30;;;6.80;99.90;6.10;100761;;;;570273;251;24137;-76
2023/04/07 08:50:04;;;;;;;11.40;4.60;;;6.90;99.90;6.10;100769;;;;562642;251;24118;-77
2023/04/07 08:52:41;;;;;;;11.50;5.10;;;6.90;99.90;6.10;100762;;;;570787;251;24074;-78
2023/04/07 08:55:10;;;;;;;9.13;6.40;;;6.90;99.90;6.10;100768;;;;571075;246;25139;-76
2023/04/07 08:57:38;;;;;;;13.90;6.90;;;6.90;99.90;6.20;100766;;;;572509;247;24104;-77
2023/04/07 09:00:05;;;;;;;17.00;8.00;;;7.00;99.90;6.30;100760;;;;562154;251;24151;-76
2023/04/07 09:02:36;;;;;;;13.30;6.77;;;7.00;99.90;6.30;100749;;;;560768;251;24129;-76
2023/04/07 09:05:07;;;;;;;10.27;6.83;;;7.10;99.90;6.30;100757;;;;562222;251;24122;-76
2023/04/07 09:07:35;;;;;;;7.93;4.87;;;7.10;99.90;6.40;100760;;;;561171;251;25155;-76
2023/04/07 09:10:03;;;;;;;8.83;5.27;;;7.20;99.90;6.40;100754;;;;560617;252;24113;-75
2023/04/07 09:12:31;;;;;;;14.57;7.27;;;7.20;99.90;6.60;100760;;;;573901;248;24123;-76
2023/04/07 09:15:02;;;;;;;10.60;6.60;;;7.30;99.90;6.60;100753;;;;570051;248;24124;-78
2023/04/07 09:17:26;;;;;;;11.97;5.73;;;7.40;99.90;6.60;100753;;;;569503;248;24134;-76
2023/04/07 09:20:05;;;;;;;10.93;7.17;;;7.40;99.90;6.60;100749;;;;576868;246;24128;-77
2023/04/07 09:22:38;;;;;;;17.20;7.27;;;7.40;99.90;6.60;100748;;;;571784;246;24079;-77
2023/04/07 09:25:14;;;;;;;12.53;6.77;;;7.40;99.90;6.70;100739;;;;571904;246;24087;-75
2023/04/07 09:27:54;;;;;;;11.50;6.20;;;7.40;99.90;6.70;100741;;;;572128;246;24139;-78
2023/04/07 09:30:25;;;;;;;16.73;7.30;;;7.50;99.90;6.70;100738;;;;579691;246;24162;-77
2023/04/07 09:32:50;;;;;;;11.93;7.50;;;7.50;99.90;6.90;100746;;;;572166;246;24085;-77
2023/04/07 09:35:21;;;;;;;15.63;6.70;;;7.80;99.90;7.10;100747;;;;578456;246;24110;-75
2023/04/07 09:37:47;;;;;;;11.17;7.43;;;7.80;99.90;7.30;100740;;;;572122;246;24130;-77
2023/04/07 09:40:14;;;;;;;13.80;6.57;;;8.00;99.90;7.40;100747;;;;570565;246;24086;-78
2023/04/07 09:42:49;;;;;;;13.43;7.30;;;8.10;99.90;7.40;100746;;;;570704;246;24121;-76
2023/04/07 09:45:14;;;;;;;14.93;7.37;;;8.10;99.90;7.30;100747;;;;572694;246;24108;-76
2023/04/07 09:47:43;;;;;;;16.80;7.27;;;8.00;99.90;7.20;100753;;;;571975;246;24091;-76
2023/04/07 09:50:10;;;;;;;15.90;9.87;;;7.90;99.90;7.10;100752;;;;573699;246;35324;-78
2023/04/07 09:52:53;;;;;;;15.43;8.37;;;7.80;99.90;7.00;100752;;;;578837;246;24141;-77
2023/04/07 09:55:24;;;;;;;13.83;6.50;;;7.80;99.90;6.90;100744;;;;578406;246;24135;-76
2023/04/07 09:57:55;;;;;;;12.43;7.53;;;7.70;99.90;6.90;100755;;;;578485;246;24163;-77
2023/04/07 10:00:20;;;;;;;16.90;8.33;;;7.60;99.90;6.90;100749;;;;572003;246;24142;-77
2023/04/07 10:02:50;;;;;;;25.83;9.60;;;7.60;99.90;7.00;100750;;;;578355;246;24150;-77
2023/04/07 10:05:15;;;;;;;14.63;8.53;;;7.70;99.90;7.20;100760;;;;569619;246;24099;-79
2023/04/07 10:07:43;;;;;;;15.47;8.50;;;7.90;99.90;7.40;100760;;;;578062;246;25164;-81
2023/04/07 10:10:11;;;;;;;13.27;8.20;;;8.10;99.90;7.60;100742;;;;572186;246;24089;-82
2023/04/07 10:12:40;;;;;;;13.37;7.97;;;8.60;99.90;7.90;100742;;;;578158;246;24090;-77
2023/04/07 10:15:08;;;;;;;12.57;8.47;;;8.50;99.90;8.20;100754;;;;571903;246;24130;-76
2023/04/07 10:17:36;;;;;;;15.63;8.37;;;8.80;99.90;8.30;100757;;;;580667;246;24157;-78
2023/04/07 10:20:04;;;;;;;18.03;9.00;;;9.00;99.90;8.40;100752;;;;581009;246;24142;-77
2023/04/07 10:22:32;;;;;;;15.10;8.60;;;9.10;99.90;8.60;100768;;;;580936;246;24070;-81
2023/04/07 10:25:03;;;;;;;12.33;8.40;;;9.30;99.90;8.60;100757;;;;572257;246;24119;-79
2023/04/07 10:27:48;;;;;;;17.33;8.87;;;9.30;99.90;8.70;100753;;;;580831;243;24079;-77
2023/04/07 10:30:11;;;;;;;19.37;9.80;;;9.60;99.90;8.80;100756;;;;571731;246;25260;-75
2023/04/07 10:32:48;;;;;;;16.67;9.47;;;9.60;99.90;8.90;100763;;;;571457;246;25204;-76
2023/04/07 10:35:16;;;;;;;17.17;9.73;;;9.60;99.90;8.90;100753;;;;571134;246;24171;-77
2023/04/07 10:38:12;;;;;;;13.17;9.10;;;9.60;99.90;8.90;100754;;;;572185;246;24109;-76
2023/04/07 10:40:42;;;;;;;20.47;10.67;;;9.60;99.90;8.90;100751;;;;564521;252;24094;-76
2023/04/07 10:43:10;;;;;;;16.30;9.37;;;9.70;99.90;8.90;100746;;;;580319;247;24073;-77
2023/04/07 10:45:54;;;;;;;14.07;8.50;;;9.60;99.90;8.90;100750;;;;576673;242;25126;-76
2023/04/07 10:48:21;;;;;;;13.57;9.10;;;9.60;99.90;9.00;100748;;;;583230;242;24145;-77
2023/04/07 10:50:48;;;;;;;13.33;6.73;;;9.80;99.90;9.10;100741;;;;592203;242;24088;-75
2023/04/07 10:53:14;;;;;;;15.33;9.47;;;9.80;99.90;9.10;100748;;;;592081;241;24068;-77
2023/04/07 10:55:45;;;;;;;17.50;9.03;;;9.80;99.90;9.20;100755;;;;593405;240;24103;-76
2023/04/07 10:58:30;;;;;;;13.83;9.87;;;9.90;99.90;9.30;100745;;;;593847;237;24067;-76
2023/04/07 11:01:04;;;;;;;13.87;8.87;;;10.00;99.90;9.40;100750;;;;585165;241;24099;-76
2023/04/07 11:03:35;;;;;;;14.57;9.43;;;10.10;99.90;9.40;100745;;;;584799;241;24123;-77
2023/04/07 11:06:08;;;;;;;15.07;8.20;;;10.20;99.90;9.40;100753;;;;593396;241;24093;-76
2023/04/07 11:08:40;;;;;;;15.93;8.97;;;10.20;99.90;9.70;100746;;;;583773;241;24101;-77
2023/04/07 11:11:11;;;;;;;10.47;6.10;;;10.50;99.90;9.70;100739;;;;584009;241;24061;-76
2023/04/07 11:13:48;;;;;;;13.53;8.20;;;10.50;99.90;9.70;100738;;;;583691;241;24131;-77
2023/04/07 11:16:16;;;;;;;15.23;8.80;;;10.50;99.90;9.70;100736;;;;583945;241;24151;-76
2023/04/07 11:18:43;;;;;;;13.30;8.70;;;10.50;99.90;9.70;100737;;;;583735;237;24140;-77
2023/04/07 11:21:11;;;;;;;14.23;8.60;;;10.40;99.90;9.80;100728;;;;583563;241;24134;-78
2023/04/07 11:23:42;;;;;;;11.57;7.43;;;10.50;99.90;10.10;100732;;;;592630;241;24098;-78
2023/04/07 11:26:10;;;;;;;15.50;7.53;;;10.70;99.90;10.30;100743;;;;592362;241;24115;-75